createdAt,value
2023-03-30T00:01:17.134Z,7.50
2023-03-30T00:03:45.504Z,8.80
2023-03-30T00:06:20.817Z,6.40
2023-03-30T00:08:53.481Z,5.63
2023-03-30T00:11:23.084Z,3.90
2023-03-30T00:13:53.133Z,6.90
2023-03-30T00:16:20.694Z,7.80
2023-03-30T00:18:47.501Z,6.90
2023-03-30T00:21:18.085Z,4.83
2023-03-30T00:23:48.323Z,5.13
2023-03-30T00:26:15.125Z,8.73
2023-03-30T00:28:41.558Z,7.13
2023-03-30T00:31:10.579Z,6.53
2023-03-30T00:33:45.726Z,10.47
2023-03-30T00:36:13.957Z,9.20
2023-03-30T00:38:40.916Z,6.63
2023-03-30T00:41:07.718Z,5.47
2023-03-30T00:43:34.357Z,7.83
2023-03-30T00:46:01.084Z,9.50
2023-03-30T00:48:32.078Z,5.73
2023-03-30T00:51:03.664Z,11.47
2023-03-30T00:53:34.771Z,8.23
2023-03-30T00:56:03.145Z,10.50
2023-03-30T00:58:31.206Z,8.23
2023-03-30T01:01:02.031Z,8.40
2023-03-30T01:03:32.613Z,9.43
2023-03-30T01:06:01.716Z,9.67
2023-03-30T01:08:32.366Z,8.10
2023-03-30T01:11:01.429Z,13.13
2023-03-30T01:13:35.706Z,8.53
2023-03-30T01:16:35.057Z,11.37
2023-03-30T01:19:18.803Z,9.53
2023-03-30T01:22:29.508Z,6.87
2023-03-30T01:25:34.096Z,8.30
2023-03-30T01:28:26.040Z,8.63
2023-03-30T01:31:16.008Z,8.17
2023-03-30T01:34:19.307Z,6.10
2023-03-30T01:37:00.382Z,9.37
2023-03-30T01:39:35.072Z,10.90
2023-03-30T01:42:34.762Z,11.10
2023-03-30T01:45:07.070Z,6.03
2023-03-30T01:48:05.367Z,8.20
2023-03-30T01:50:44.270Z,8.67
2023-03-30T01:53:25.657Z,8.97
2023-03-30T01:56:03.614Z,9.20
2023-03-30T01:58:43.725Z,7.97
2023-03-30T02:01:14.332Z,11.13
2023-03-30T02:03:43.064Z,7.83
2023-03-30T02:06:12.907Z,8.73
2023-03-30T02:08:41.047Z,8.03
2023-03-30T02:11:07.775Z,8.20
2023-03-30T02:13:37.554Z,8.97
2023-03-30T02:16:09.507Z,8.70
2023-03-30T02:18:38.730Z,7.67
2023-03-30T02:21:05.799Z,11.93
2023-03-30T02:23:37.082Z,9.70
2023-03-30T02:26:04.702Z,6.43
2023-03-30T02:28:31.181Z,7.47
2023-03-30T02:30:57.898Z,8.27
2023-03-30T02:33:50.350Z,10.43
2023-03-30T02:36:52.020Z,11.27
2023-03-30T02:39:44.926Z,6.90
2023-03-30T02:42:29.856Z,10.53
2023-03-30T02:45:02.326Z,8.90
2023-03-30T02:47:46.327Z,8.17
2023-03-30T02:50:18.106Z,6.73
2023-03-30T02:53:01.916Z,7.30
2023-03-30T02:55:45.932Z,7.27
2023-03-30T02:58:37.897Z,8.97
2023-03-30T03:01:13.902Z,9.50
2023-03-30T03:03:58.204Z,8.87
2023-03-30T03:06:27.730Z,10.70
2023-03-30T03:08:56.199Z,10.83
2023-03-30T03:11:27.059Z,8.47
2023-03-30T03:13:53.671Z,9.10
2023-03-30T03:16:20.538Z,9.30
2023-03-30T03:19:04.594Z,12.63
2023-03-30T03:21:31.094Z,7.27
2023-03-30T03:23:57.576Z,10.23
2023-03-30T03:26:33.786Z,9.30
2023-03-30T03:29:00.220Z,10.50
2023-03-30T03:31:27.390Z,6.30
2023-03-30T03:33:53.994Z,10.03
2023-03-30T03:36:26.596Z,10.63
2023-03-30T03:38:53.469Z,8.17
2023-03-30T03:41:20.218Z,9.17
2023-03-30T03:43:46.967Z,10.17
2023-03-30T03:46:15.842Z,9.00
2023-03-30T03:48:42.806Z,8.57
2023-03-30T03:51:09.858Z,9.97
2023-03-30T03:53:36.758Z,10.03
2023-03-30T03:56:07.470Z,9.00
2023-03-30T03:58:34.305Z,12.80
2023-03-30T04:01:02.384Z,9.83
2023-03-30T04:03:29.656Z,10.13
2023-03-30T04:06:00.872Z,6.80
2023-03-30T04:08:28.593Z,8.07
2023-03-30T04:11:11.728Z,11.13
2023-03-30T04:14:06.031Z,7.00
2023-03-30T04:16:51.980Z,5.77
2023-03-30T04:19:41.984Z,12.87
2023-03-30T04:22:26.470Z,12.43
2023-03-30T04:25:08.538Z,7.23
2023-03-30T04:27:59.359Z,15.80
2023-03-30T04:30:45.616Z,9.77
2023-03-30T04:33:46.997Z,11.50
2023-03-30T04:36:35.731Z,7.67
2023-03-30T04:39:22.578Z,8.17
2023-03-30T04:42:04.139Z,9.43
2023-03-30T04:44:47.229Z,10.20
2023-03-30T04:47:35.225Z,15.03
2023-03-30T04:50:22.332Z,12.03
2023-03-30T04:53:07.471Z,14.27
2023-03-30T04:55:56.834Z,11.93
2023-03-30T04:58:25.998Z,13.97
2023-03-30T05:01:18.520Z,10.57
2023-03-30T05:04:05.356Z,14.13
2023-03-30T05:06:57.287Z,15.27
2023-03-30T05:09:31.596Z,14.67
2023-03-30T05:12:24.168Z,11.20
2023-03-30T05:15:03.496Z,14.00
2023-03-30T05:17:35.799Z,11.10
2023-03-30T05:20:20.220Z,16.00
2023-03-30T05:23:24.335Z,14.33
2023-03-30T05:26:04.512Z,14.50
2023-03-30T05:28:57.042Z,14.13
2023-03-30T05:31:52.963Z,11.10
2023-03-30T05:34:25.163Z,16.43
2023-03-30T05:37:01.266Z,18.53
2023-03-30T05:39:37.131Z,19.87
2023-03-30T05:42:19.739Z,10.17
2023-03-30T05:44:54.825Z,12.77
2023-03-30T05:47:21.976Z,17.93
2023-03-30T05:50:09.299Z,11.97
2023-03-30T05:52:47.692Z,14.27
2023-03-30T05:55:49.866Z,13.57
2023-03-30T05:58:34.672Z,13.83
2023-03-30T06:01:15.632Z,12.87
2023-03-30T06:03:44.580Z,11.97
2023-03-30T06:06:12.127Z,12.53
2023-03-30T06:08:42.026Z,10.93
2023-03-30T06:11:13.618Z,12.00
2023-03-30T06:13:45.619Z,10.30
2023-03-30T06:16:12.195Z,9.27
2023-03-30T06:18:39.015Z,6.30
2023-03-30T06:21:08.961Z,10.17
2023-03-30T06:23:52.557Z,5.20
2023-03-30T06:26:21.947Z,8.40
2023-03-30T06:28:48.895Z,10.57
2023-03-30T06:31:16.455Z,7.90
2023-03-30T06:33:44.412Z,8.23
2023-03-30T06:36:13.196Z,6.97
2023-03-30T06:38:43.536Z,8.10
2023-03-30T06:41:11.887Z,7.73
2023-03-30T06:43:41.692Z,6.63
2023-03-30T06:46:14.846Z,6.67
2023-03-30T06:48:45.707Z,8.93
2023-03-30T06:51:37.744Z,9.93
2023-03-30T06:54:06.226Z,8.80
2023-03-30T06:56:33.287Z,7.27
2023-03-30T06:59:07.573Z,5.97
2023-03-30T07:01:54.084Z,9.67
2023-03-30T07:04:31.358Z,7.37
2023-03-30T07:07:14.634Z,6.13
2023-03-30T07:09:41.909Z,11.50
2023-03-30T07:12:08.621Z,7.33
2023-03-30T07:14:35.365Z,6.80
2023-03-30T07:17:02.274Z,8.07
2023-03-30T07:19:28.818Z,8.70
2023-03-30T07:21:56.287Z,10.67
2023-03-30T07:24:26.121Z,7.63
2023-03-30T07:26:52.915Z,7.87
2023-03-30T07:29:20.235Z,9.87
2023-03-30T07:31:51.672Z,7.50
2023-03-30T07:34:19.849Z,6.03
2023-03-30T07:36:52.495Z,5.10
2023-03-30T07:39:19.591Z,7.77
2023-03-30T07:41:48.104Z,5.07
2023-03-30T07:44:14.904Z,8.17
2023-03-30T07:46:41.647Z,5.30
2023-03-30T07:49:13.649Z,4.53
2023-03-30T07:51:40.361Z,6.00
2023-03-30T07:54:13.631Z,5.60
2023-03-30T07:56:57.245Z,4.10
2023-03-30T07:59:24.423Z,4.77
2023-03-30T08:01:57.027Z,4.73
2023-03-30T08:04:45.616Z,4.10
2023-03-30T08:07:16.575Z,5.00
2023-03-30T08:09:45.806Z,6.63
2023-03-30T08:12:12.300Z,7.63
2023-03-30T08:14:39.118Z,4.47
2023-03-30T08:17:05.572Z,6.23
2023-03-30T08:19:32.082Z,5.90
2023-03-30T08:22:01.626Z,4.80
2023-03-30T08:24:28.126Z,4.07
2023-03-30T08:26:54.612Z,5.27
2023-03-30T08:29:21.315Z,4.30
2023-03-30T08:31:47.995Z,7.03
2023-03-30T08:34:14.550Z,6.00
2023-03-30T08:36:41.002Z,4.93
2023-03-30T08:39:07.519Z,4.63
2023-03-30T08:41:52.685Z,5.53
2023-03-30T08:44:36.805Z,4.27
2023-03-30T08:47:09.314Z,6.57
2023-03-30T08:49:42.432Z,4.57
2023-03-30T08:52:19.180Z,5.17
2023-03-30T08:54:45.909Z,5.37
2023-03-30T08:57:27.534Z,4.80
2023-03-30T09:00:19.900Z,4.93
2023-03-30T09:02:50.563Z,5.77
2023-03-30T09:05:31.299Z,3.37
2023-03-30T09:08:04.655Z,4.23
2023-03-30T09:10:41.616Z,5.30
2023-03-30T09:13:12.191Z,5.43
2023-03-30T09:15:52.276Z,4.30
2023-03-30T09:18:34.674Z,6.77
2023-03-30T09:21:05.854Z,6.13
2023-03-30T09:23:34.200Z,5.17
2023-03-30T09:26:04.905Z,4.70
2023-03-30T09:28:57.337Z,4.77
2023-03-30T09:31:41.318Z,3.47
2023-03-30T09:34:34.024Z,4.73
2023-03-30T09:37:03.488Z,6.23
2023-03-30T09:39:33.398Z,6.77
2023-03-30T09:42:24.519Z,5.23
2023-03-30T09:44:59.834Z,7.27
2023-03-30T09:47:28.740Z,5.90
2023-03-30T09:49:57.606Z,4.30
2023-03-30T09:52:29.850Z,4.30
2023-03-30T09:54:57.261Z,5.33
2023-03-30T09:57:27.232Z,5.57
2023-03-30T09:59:55.903Z,5.20
2023-03-30T10:02:25.391Z,4.97
2023-03-30T10:04:56.225Z,6.93
2023-03-30T10:07:29.049Z,6.03
2023-03-30T10:09:57.202Z,7.73
2023-03-30T10:12:26.088Z,4.37
2023-03-30T10:15:00.960Z,5.03
2023-03-30T10:17:28.648Z,5.37
2023-03-30T10:20:17.777Z,6.23
2023-03-30T10:22:56.378Z,5.77
2023-03-30T10:25:27.444Z,4.70
2023-03-30T10:27:57.275Z,5.30
2023-03-30T10:30:27.055Z,2.73
2023-03-30T10:32:57.065Z,3.00
2023-03-30T10:35:26.358Z,4.70
2023-03-30T10:37:56.795Z,5.87
2023-03-30T10:40:33.960Z,4.73
2023-03-30T10:43:01.304Z,4.30
2023-03-30T10:45:34.454Z,5.30
2023-03-30T10:48:13.302Z,3.13
2023-03-30T10:50:46.399Z,5.73
2023-03-30T10:53:21.743Z,3.80
2023-03-30T10:56:07.315Z,4.73
2023-03-30T10:59:12.911Z,2.93
2023-03-30T11:02:02.545Z,2.97
2023-03-30T11:04:47.256Z,5.53
2023-03-30T11:07:47.931Z,2.63
2023-03-30T11:10:21.909Z,5.27
2023-03-30T11:12:56.230Z,2.37
2023-03-30T11:15:31.099Z,4.03
2023-03-30T11:18:04.192Z,5.37
2023-03-30T11:20:50.656Z,4.30
2023-03-30T11:23:27.897Z,3.20
2023-03-30T11:26:08.755Z,5.50
2023-03-30T11:28:54.265Z,3.53
2023-03-30T11:31:42.494Z,5.00
2023-03-30T11:34:32.088Z,2.47
2023-03-30T11:37:12.650Z,4.70
2023-03-30T11:39:45.422Z,3.47
2023-03-30T11:42:17.653Z,4.17
2023-03-30T11:44:44.161Z,4.90
2023-03-30T11:47:24.920Z,5.03
2023-03-30T11:50:23.117Z,3.63
2023-03-30T11:53:06.418Z,4.03
2023-03-30T11:55:59.565Z,4.33
2023-03-30T11:58:47.616Z,2.43
2023-03-30T12:01:46.500Z,4.40
2023-03-30T12:04:16.259Z,2.57
2023-03-30T12:07:00.797Z,4.33
2023-03-30T12:09:53.571Z,2.90
2023-03-30T12:12:32.722Z,2.37
2023-03-30T12:15:29.586Z,3.97
2023-03-30T12:17:58.448Z,3.17
2023-03-30T12:20:31.761Z,4.17
2023-03-30T12:23:22.401Z,3.00
2023-03-30T12:26:27.444Z,3.87
2023-03-30T12:29:26.288Z,1.73
2023-03-30T12:31:51.207Z,3.00
2023-03-30T12:34:18.510Z,2.73
2023-03-30T12:36:53.198Z,2.73
2023-03-30T12:39:26.209Z,3.07
2023-03-30T12:42:04.285Z,2.80
2023-03-30T12:44:37.114Z,2.53
2023-03-30T12:47:23.602Z,3.70
2023-03-30T12:50:13.240Z,4.33
2023-03-30T12:52:42.699Z,2.77
2023-03-30T12:55:30.213Z,1.40
2023-03-30T12:58:01.827Z,3.07
2023-03-30T13:00:50.930Z,1.60
2023-03-30T13:03:33.323Z,4.50
2023-03-30T13:06:02.121Z,3.47
2023-03-30T13:08:37.146Z,1.93
2023-03-30T13:11:26.995Z,3.53
2023-03-30T13:13:57.885Z,3.47
2023-03-30T13:16:50.214Z,2.37
2023-03-30T13:19:41.161Z,2.97
2023-03-30T13:22:10.647Z,2.60
2023-03-30T13:24:44.687Z,3.60
2023-03-30T13:27:14.288Z,1.33
2023-03-30T13:30:03.493Z,3.67
2023-03-30T13:32:59.427Z,3.63
2023-03-30T13:35:35.295Z,2.33
2023-03-30T13:38:23.386Z,2.00
2023-03-30T13:41:08.346Z,2.20
2023-03-30T13:43:53.404Z,1.77
2023-03-30T13:46:41.827Z,2.60
2023-03-30T13:49:35.120Z,2.17
2023-03-30T13:52:12.129Z,3.37
2023-03-30T13:54:40.710Z,4.27
2023-03-30T13:57:11.491Z,2.23
2023-03-30T13:59:47.047Z,4.43
2023-03-30T14:02:19.255Z,5.80
2023-03-30T14:04:45.958Z,4.23
2023-03-30T14:07:16.696Z,4.47
2023-03-30T14:10:02.059Z,2.60
2023-03-30T14:12:28.629Z,3.50
2023-03-30T14:14:55.087Z,1.57
2023-03-30T14:17:24.672Z,2.43
2023-03-30T14:19:53.981Z,2.17
2023-03-30T14:22:26.413Z,2.77
2023-03-30T14:25:01.601Z,3.60
2023-03-30T14:27:36.809Z,2.70
2023-03-30T14:30:18.828Z,4.80
2023-03-30T14:32:45.512Z,2.87
2023-03-30T14:35:18.698Z,3.20
2023-03-30T14:37:51.668Z,8.63
2023-03-30T14:40:20.277Z,4.10
2023-03-30T14:42:47.085Z,1.70
2023-03-30T14:45:17.787Z,2.03
2023-03-30T14:47:46.738Z,4.30
2023-03-30T14:50:16.740Z,4.00
2023-03-30T14:52:46.892Z,1.73
2023-03-30T14:55:21.201Z,2.53
2023-03-30T14:57:48.699Z,2.97
2023-03-30T15:00:21.408Z,1.40
2023-03-30T15:03:00.653Z,1.73
2023-03-30T15:05:32.386Z,1.13
2023-03-30T15:07:58.925Z,4.77
2023-03-30T15:10:28.288Z,2.47
2023-03-30T15:12:57.736Z,2.70
2023-03-30T15:15:29.715Z,4.67
2023-03-30T15:17:56.912Z,4.33
2023-03-30T15:20:26.597Z,3.70
2023-03-30T15:22:53.931Z,3.70
2023-03-30T15:25:24.014Z,1.77
2023-03-30T15:27:58.282Z,4.37
2023-03-30T15:30:32.961Z,1.67
2023-03-30T15:32:59.723Z,2.70
2023-03-30T15:35:29.063Z,1.83
2023-03-30T15:38:00.290Z,3.43
2023-03-30T15:40:27.040Z,3.60
2023-03-30T15:43:33.345Z,5.77
2023-03-30T15:46:07.823Z,4.97
2023-03-30T15:48:43.082Z,4.37
2023-03-30T15:51:28.197Z,4.57
2023-03-30T15:54:01.492Z,4.30
2023-03-30T15:56:38.668Z,2.63
2023-03-30T15:59:06.171Z,5.87
2023-03-30T16:01:51.002Z,2.40
2023-03-30T16:04:21.903Z,3.63
2023-03-30T16:06:48.394Z,2.23
2023-03-30T16:09:16.063Z,3.10
2023-03-30T16:11:45.360Z,2.73
2023-03-30T16:14:19.956Z,5.03
2023-03-30T16:16:47.791Z,2.23
2023-03-30T16:19:17.873Z,2.97
2023-03-30T16:21:45.613Z,2.70
2023-03-30T16:24:12.657Z,3.67
2023-03-30T16:26:39.172Z,4.03
2023-03-30T16:29:14.264Z,6.83
2023-03-30T16:31:40.809Z,4.73
2023-03-30T16:34:07.261Z,5.37
2023-03-30T16:36:34.525Z,6.20
2023-03-30T16:39:01.023Z,2.67
2023-03-30T16:41:27.558Z,5.80
2023-03-30T16:43:54.085Z,3.40
2023-03-30T16:46:20.657Z,7.13
2023-03-30T16:48:47.891Z,3.47
2023-03-30T16:51:15.347Z,4.50
2023-03-30T16:53:42.666Z,2.67
2023-03-30T16:56:17.641Z,4.23
2023-03-30T16:58:44.780Z,3.43
2023-03-30T17:01:13.311Z,3.80
2023-03-30T17:03:40.360Z,4.93
2023-03-30T17:06:08.128Z,5.67
2023-03-30T17:08:34.832Z,3.07
2023-03-30T17:11:07.613Z,3.90
2023-03-30T17:13:34.874Z,3.73
2023-03-30T17:16:02.818Z,2.77
2023-03-30T17:18:29.760Z,3.37
2023-03-30T17:20:57.821Z,3.13
2023-03-30T17:23:26.322Z,4.03
2023-03-30T17:25:54.541Z,5.13
2023-03-30T17:28:24.184Z,5.10
2023-03-30T17:30:53.160Z,4.53
2023-03-30T17:33:20.118Z,4.47
2023-03-30T17:35:50.732Z,1.60
2023-03-30T17:38:17.690Z,4.43
2023-03-30T17:40:44.818Z,5.10
2023-03-30T17:43:12.224Z,5.07
2023-03-30T17:45:39.370Z,6.33
2023-03-30T17:48:07.526Z,7.93
2023-03-30T17:50:36.837Z,7.20
2023-03-30T17:53:03.546Z,7.57
2023-03-30T17:55:32.570Z,9.17
2023-03-30T17:57:59.732Z,4.77
2023-03-30T18:00:32.408Z,5.03
2023-03-30T18:03:00.297Z,6.37
2023-03-30T18:05:29.337Z,7.37
2023-03-30T18:07:56.071Z,8.27
2023-03-30T18:10:28.408Z,5.33
2023-03-30T18:12:55.494Z,4.57
2023-03-30T18:15:30.473Z,3.33
2023-03-30T18:17:58.715Z,3.67
2023-03-30T18:20:32.894Z,6.80
2023-03-30T18:23:00.330Z,5.33
2023-03-30T18:25:32.396Z,5.33
2023-03-30T18:28:00.985Z,5.90
2023-03-30T18:30:36.849Z,4.93
2023-03-30T18:33:04.600Z,7.93
2023-03-30T18:35:32.854Z,4.83
2023-03-30T18:37:59.305Z,5.27
2023-03-30T18:40:33.071Z,3.70
2023-03-30T18:43:00.373Z,6.17
2023-03-30T18:45:33.888Z,6.47
2023-03-30T18:48:01.898Z,6.57
2023-03-30T18:50:31.450Z,5.27
2023-03-30T18:52:57.964Z,4.23
2023-03-30T18:55:25.565Z,4.07
2023-03-30T18:57:52.593Z,8.97
2023-03-30T19:00:24.073Z,7.10
2023-03-30T19:02:50.937Z,5.60
2023-03-30T19:05:18.839Z,8.20
2023-03-30T19:07:45.809Z,7.07
2023-03-30T19:10:15.716Z,6.27
2023-03-30T19:12:42.907Z,7.43
2023-03-30T19:15:38.813Z,4.50
2023-03-30T19:18:06.153Z,3.17
2023-03-30T19:20:34.974Z,4.80
2023-03-30T19:23:01.575Z,3.90
2023-03-30T19:25:28.385Z,5.50
2023-03-30T19:28:03.347Z,2.10
2023-03-30T19:30:33.640Z,1.87
2023-03-30T19:33:03.710Z,3.37
2023-03-30T19:35:30.940Z,4.50
2023-03-30T19:37:57.489Z,3.73
2023-03-30T19:40:24.537Z,4.50
2023-03-30T19:42:51.687Z,4.23
2023-03-30T19:45:21.090Z,3.27
2023-03-30T19:47:47.624Z,2.83
2023-03-30T19:50:17.968Z,6.27
2023-03-30T19:52:50.601Z,3.73
2023-03-30T19:55:19.278Z,6.57
2023-03-30T19:57:45.987Z,8.80
2023-03-30T20:00:18.131Z,9.20
2023-03-30T20:02:47.667Z,10.03
2023-03-30T20:05:15.349Z,10.10
2023-03-30T20:07:43.283Z,5.63
2023-03-30T20:10:13.772Z,5.83
2023-03-30T20:12:40.326Z,6.00
2023-03-30T20:15:08.214Z,6.17
2023-03-30T20:17:36.337Z,5.77
2023-03-30T20:20:07.067Z,4.27
2023-03-30T20:22:36.073Z,6.83
2023-03-30T20:25:03.334Z,5.97
2023-03-30T20:27:29.821Z,13.07
2023-03-30T20:29:56.262Z,38.47
2023-03-30T20:32:22.866Z,11.67
2023-03-30T20:34:49.390Z,10.43
2023-03-30T20:37:16.149Z,6.83
2023-03-30T20:39:43.073Z,5.13
2023-03-30T20:42:09.939Z,5.67
2023-03-30T20:44:39.503Z,8.03
2023-03-30T20:47:08.508Z,8.23
2023-03-30T20:49:35.086Z,12.13
2023-03-30T20:52:01.633Z,14.17
2023-03-30T20:54:29.088Z,10.93
2023-03-30T20:56:55.664Z,11.47
2023-03-30T20:59:22.734Z,9.00
2023-03-30T21:01:51.823Z,13.70
2023-03-30T21:04:19.514Z,12.87
2023-03-30T21:06:46.774Z,14.60
2023-03-30T21:09:13.636Z,13.17
2023-03-30T21:11:40.440Z,13.47
2023-03-30T21:14:10.349Z,9.40
2023-03-30T21:16:41.929Z,10.90
2023-03-30T21:19:09.458Z,13.23
2023-03-30T21:21:37.564Z,11.77
2023-03-30T21:24:05.879Z,8.30
2023-03-30T21:26:32.876Z,9.93
2023-03-30T21:28:59.332Z,10.77
2023-03-30T21:31:25.945Z,8.93
2023-03-30T21:33:52.807Z,13.00
2023-03-30T21:36:19.393Z,11.40
2023-03-30T21:38:46.347Z,11.03
2023-03-30T21:41:16.018Z,7.27
2023-03-30T21:43:45.099Z,9.13
2023-03-30T21:46:13.887Z,10.10
2023-03-30T21:48:41.909Z,5.23
2023-03-30T21:51:13.607Z,8.43
2023-03-30T21:53:42.034Z,7.63
2023-03-30T21:56:09.467Z,8.60
2023-03-30T21:58:35.936Z,7.60
2023-03-30T22:01:11.699Z,8.87
2023-03-30T22:03:39.531Z,9.03
2023-03-30T22:06:08.518Z,9.27
2023-03-30T22:08:35.759Z,8.17
2023-03-30T22:11:08.460Z,10.47
2023-03-30T22:13:35.239Z,14.23
2023-03-30T22:16:06.203Z,13.60
2023-03-30T22:18:33.697Z,14.47
2023-03-30T22:21:03.762Z,12.27
2023-03-30T22:23:31.330Z,8.53
2023-03-30T22:25:58.981Z,10.77
2023-03-30T22:28:25.882Z,9.37
2023-03-30T22:30:52.430Z,8.07
2023-03-30T22:33:19.302Z,8.40
2023-03-30T22:35:48.110Z,9.07
2023-03-30T22:38:16.121Z,9.27
2023-03-30T22:40:42.996Z,9.13
2023-03-30T22:43:10.976Z,10.60
2023-03-30T22:45:38.305Z,11.83
2023-03-30T22:48:05.581Z,7.87
2023-03-30T22:50:33.726Z,6.83
2023-03-30T22:53:00.264Z,10.43
2023-03-30T22:55:26.716Z,8.77
2023-03-30T22:57:54.031Z,9.93
2023-03-30T23:00:21.104Z,5.93
2023-03-30T23:02:49.242Z,8.30
2023-03-30T23:05:16.054Z,8.40
2023-03-30T23:07:44.221Z,5.00
2023-03-30T23:10:15.270Z,6.70
2023-03-30T23:12:42.988Z,5.53
2023-03-30T23:15:10.952Z,5.40
2023-03-30T23:17:38.115Z,8.30
2023-03-30T23:20:06.592Z,3.30
2023-03-30T23:22:33.067Z,7.13
2023-03-30T23:24:59.553Z,9.87
2023-03-30T23:27:26.068Z,6.67
2023-03-30T23:29:55.845Z,5.73
2023-03-30T23:32:22.293Z,5.50
2023-03-30T23:34:48.753Z,6.03
2023-03-30T23:37:15.263Z,4.50
2023-03-30T23:39:41.707Z,10.83
2023-03-30T23:42:08.194Z,7.00
2023-03-30T23:44:34.768Z,7.20
2023-03-30T23:47:02.205Z,8.93
2023-03-30T23:49:28.836Z,7.27
2023-03-30T23:51:55.565Z,9.13
2023-03-30T23:54:22.204Z,8.13
2023-03-30T23:56:49.043Z,6.17
2023-03-30T23:59:16.077Z,6.80
